Time;durP1;ratioP1;P1;durP2;ratioP2;P2;SDS_P1;SDS_P2;PMS_P1;PMS_P2;Temp;Humidity;BMP_temperature;BMP_pressure;BME280_temperature;BME280_humidity;BME280_pressure;Samples;Min_cycle;Max_cycle;Signal;HPM_P1;HPM_P2
2023/03/07 00:01:27;;;;;;;47.15;10.57;;;;;;;1.65;70.56;95127.28;5050439;28;20409;-73
2023/03/07 00:03:53;;;;;;;47.17;11.02;;;;;;;1.49;70.85;95117.84;5051593;28;20056;-72
2023/03/07 00:06:22;;;;;;;40.25;10.63;;;;;;;1.46;71.50;95129.16;5050903;28;20051;-73
2023/03/07 00:08:50;;;;;;;38.17;10.02;;;;;;;1.50;71.80;95130.16;5051632;28;20037;-72
2023/03/07 00:11:16;;;;;;;38.70;10.32;;;;;;;1.71;71.22;95126.09;5050806;28;20076;-73
2023/03/07 00:13:43;;;;;;;43.78;10.65;;;;;;;1.68;71.01;95126.69;5051824;28;20044;-72
2023/03/07 00:16:12;;;;;;;24.33;8.80;;;;;;;1.75;70.42;95121.75;5051311;28;20622;-72
2023/03/07 00:18:40;;;;;;;44.08;10.88;;;;;;;1.71;70.30;95117.25;5051334;28;20052;-72
2023/03/07 00:21:08;;;;;;;37.53;9.98;;;;;;;1.75;70.34;95119.06;5050820;28;20044;-72
2023/03/07 00:23:38;;;;;;;30.33;9.27;;;;;;;1.62;70.26;95111.78;5051370;28;20044;-73
2023/03/07 00:26:06;;;;;;;43.70;10.32;;;;;;;1.69;69.96;95112.19;5049866;28;20415;-72
2023/03/07 00:28:33;;;;;;;39.00;10.07;;;;;;;1.55;70.02;95116.69;5050891;28;20128;-72
2023/03/07 00:31:01;;;;;;;41.25;9.50;;;;;;;1.53;70.61;95110.81;5050151;28;20037;-72
2023/03/07 00:33:27;;;;;;;33.72;10.48;;;;;;;1.73;70.37;95113.22;5070910;28;20048;-73
2023/03/07 00:35:56;;;;;;;60.40;11.60;;;;;;;1.89;69.81;95110.28;5071972;28;20041;-73
2023/03/07 00:38:23;;;;;;;37.08;9.65;;;;;;;1.96;70.05;95110.69;5072037;28;20094;-72
2023/03/07 00:40:58;;;;;;;56.72;11.38;;;;;;;1.85;69.50;95104.69;5069303;28;20052;-72
2023/03/07 00:43:25;;;;;;;37.60;10.15;;;;;;;2.02;69.32;95093.41;5069352;28;20044;-72
2023/03/07 00:45:51;;;;;;;34.80;9.35;;;;;;;2.12;68.93;95093.22;5070435;28;20520;-72
2023/03/07 00:48:18;;;;;;;35.10;9.43;;;;;;;2.16;69.09;95094.25;5069505;28;20044;-72
2023/03/07 00:50:44;;;;;;;36.13;9.55;;;;;;;2.04;69.28;95096.63;5070023;28;20072;-72
2023/03/07 00:53:11;;;;;;;33.80;9.93;;;;;;;1.96;69.08;95089.22;5070390;28;20040;-72
2023/03/07 00:55:37;;;;;;;47.42;11.07;;;;;;;1.89;69.15;95078.06;5071058;28;20511;-73
2023/03/07 00:58:05;;;;;;;27.33;9.57;;;;;;;2.04;68.89;95075.94;5070883;28;20499;-72
2023/03/07 01:00:31;;;;;;;32.28;10.15;;;;;;;1.99;69.10;95083.28;5071181;28;20082;-72
2023/03/07 01:03:00;;;;;;;34.53;10.48;;;;;;;1.97;69.11;95080.06;5070869;28;20039;-73
2023/03/07 01:05:27;;;;;;;30.90;9.85;;;;;;;1.87;69.39;95074.88;5062574;28;20071;-72
2023/03/07 01:07:54;;;;;;;36.30;10.52;;;;;;;1.80;69.59;95075.25;5071739;28;20056;-72
2023/03/07 01:10:20;;;;;;;33.30;10.38;;;;;;;1.72;70.11;95068.69;5071528;28;20040;-72
2023/03/07 01:12:47;;;;;;;35.08;10.35;;;;;;;1.75;69.90;95068.06;5070803;28;20037;-72
2023/03/07 01:15:15;;;;;;;44.10;10.88;;;;;;;1.71;70.17;95072.44;5070871;28;20044;-73
2023/03/07 01:17:41;;;;;;;38.72;10.27;;;;;;;1.86;70.06;95063.34;5070772;28;20143;-72
2023/03/07 01:20:09;;;;;;;34.78;10.57;;;;;;;1.94;70.24;95065.34;5072014;28;20040;-73
2023/03/07 01:22:36;;;;;;;33.97;9.65;;;;;;;2.05;69.80;95063.28;5073898;28;20048;-72
2023/03/07 01:25:02;;;;;;;39.80;10.45;;;;;;;2.12;69.69;95057.53;5073666;28;20040;-73
2023/03/07 01:27:29;;;;;;;37.72;10.10;;;;;;;2.18;69.77;95051.75;5074448;28;20102;-72
2023/03/07 01:29:57;;;;;;;43.97;10.50;;;;;;;2.20;69.76;95054.97;5074097;28;20040;-73
2023/03/07 01:32:24;;;;;;;52.70;11.43;;;;;;;1.98;70.44;95054.81;5073367;28;20052;-72
2023/03/07 01:34:51;;;;;;;36.75;9.95;;;;;;;1.98;70.66;95052.13;5074225;28;20048;-72
2023/03/07 01:37:18;;;;;;;40.88;10.20;;;;;;;2.08;70.42;95049.25;5071788;28;20041;-72
2023/03/07 01:39:44;;;;;;;48.13;10.43;;;;;;;2.04;70.88;95045.59;5071255;28;20127;-72
2023/03/07 01:42:11;;;;;;;41.20;10.48;;;;;;;2.00;70.63;95047.28;5070538;28;20044;-73
2023/03/07 01:44:59;;;;;;;40.22;10.60;;;;;;;1.98;70.70;95038.69;5071019;28;20045;-72
2023/03/07 01:47:27;;;;;;;36.00;10.43;;;;;;;1.88;70.91;95038.88;5070184;28;20053;-72
2023/03/07 01:49:54;;;;;;;49.80;11.45;;;;;;;1.83;71.06;95035.22;5071348;28;20048;-72
2023/03/07 01:52:25;;;;;;;46.42;11.52;;;;;;;1.73;71.71;95032.69;5070684;28;20060;-73
2023/03/07 01:54:56;;;;;;;39.65;10.77;;;;;;;1.66;71.86;95031.47;5070614;28;20051;-72
2023/03/07 01:57:26;;;;;;;46.40;11.18;;;;;;;1.62;72.02;95033.13;5069438;28;20059;-73
2023/03/07 01:59:58;;;;;;;51.95;11.48;;;;;;;1.58;72.01;95024.91;5069732;28;20040;-72
2023/03/07 02:02:28;;;;;;;49.55;11.07;;;;;;;1.59;72.28;95025.69;5069375;28;20048;-72
2023/03/07 02:04:59;;;;;;;42.22;11.25;;;;;;;1.58;72.92;95024.91;5070057;28;20045;-73
2023/03/07 02:07:31;;;;;;;40.00;11.00;;;;;;;1.62;73.08;95015.19;5069654;28;20044;-72
2023/03/07 02:09:59;;;;;;;36.67;10.57;;;;;;;1.60;72.66;95017.34;5071365;28;20053;-73
2023/03/07 02:12:26;;;;;;;43.33;10.57;;;;;;;1.64;72.81;95015.66;5071283;28;20063;-73
2023/03/07 02:14:53;;;;;;;38.78;11.05;;;;;;;1.81;72.26;95007.06;5071789;28;20041;-73
2023/03/07 02:17:20;;;;;;;38.42;10.75;;;;;;;1.92;72.16;95013.03;5071411;28;20045;-73
2023/03/07 02:20:00;;;;;;;39.00;10.82;;;;;;;1.99;71.88;95005.41;5071889;28;20032;-73
2023/03/07 02:22:27;;;;;;;35.20;9.93;;;;;;;2.10;71.56;95001.44;5071428;28;20044;-73
2023/03/07 02:24:59;;;;;;;39.42;10.35;;;;;;;2.17;71.58;94998.34;5076442;28;20047;-73
2023/03/07 02:27:28;;;;;;;33.05;9.52;;;;;;;2.20;71.62;95009.31;5079225;28;20128;-73
2023/03/07 02:29:55;;;;;;;37.78;10.43;;;;;;;2.19;71.55;94996.94;5079522;28;20037;-73
2023/03/07 02:32:22;;;;;;;29.70;10.98;;;;;;;2.12;71.70;94999.25;5074816;28;20055;-73
2023/03/07 02:34:48;;;;;;;37.65;10.35;;;;;;;2.16;71.77;95000.25;5075266;28;20048;-73
2023/03/07 02:37:19;;;;;;;35.55;10.48;;;;;;;2.16;71.86;95002.94;5075447;28;20514;-73
2023/03/07 02:39:46;;;;;;;41.45;10.82;;;;;;;2.16;71.81;95002.94;5075900;28;20045;-74
2023/03/07 02:42:17;;;;;;;40.25;10.90;;;;;;;1.76;72.15;94999.88;5074711;28;20052;-73
2023/03/07 02:44:46;;;;;;;44.38;10.73;;;;;;;1.52;72.59;94997.34;5074119;28;20036;-73
2023/03/07 02:47:12;;;;;;;38.10;10.25;;;;;;;1.51;72.64;95003.00;5073567;28;20079;-73
2023/03/07 02:49:39;;;;;;;55.63;11.35;;;;;;;1.45;72.14;95004.16;5073594;28;20041;-73
2023/03/07 02:52:06;;;;;;;46.53;11.45;;;;;;;1.42;72.80;94994.03;5073630;28;20041;-72
2023/03/07 02:54:32;;;;;;;42.80;11.20;;;;;;;1.40;72.70;95001.56;5074039;28;20492;-75
2023/03/07 02:56:59;;;;;;;36.67;10.60;;;;;;;1.41;72.72;95001.28;5073856;28;20047;-74
2023/03/07 02:59:25;;;;;;;45.63;11.52;;;;;;;1.40;72.87;94998.88;5072659;28;20427;-75
2023/03/07 03:01:53;;;;;;;31.85;10.45;;;;;;;1.46;72.93;95005.75;5073141;28;20040;-73
2023/03/07 03:04:19;;;;;;;34.97;10.73;;;;;;;1.47;73.00;95002.00;5072941;28;20064;-73
2023/03/07 03:06:46;;;;;;;39.10;10.07;;;;;;;1.44;72.52;94994.53;5072684;28;20044;-73
2023/03/07 03:09:12;;;;;;;36.05;11.00;;;;;;;1.43;72.53;95001.00;5072863;28;20044;-72
2023/03/07 03:11:39;;;;;;;33.08;10.27;;;;;;;1.48;71.96;95004.38;5072736;28;20428;-74
2023/03/07 03:14:05;;;;;;;34.95;10.05;;;;;;;1.55;71.18;94998.63;5072263;28;20098;-72
2023/03/07 03:16:32;;;;;;;26.45;9.10;;;;;;;1.55;70.66;94994.06;5072674;28;20592;-72
2023/03/07 03:19:00;;;;;;;23.92;9.23;;;;;;;1.57;70.22;95001.84;5072808;28;20052;-72
2023/03/07 03:21:26;;;;;;;25.15;8.75;;;;;;;1.57;70.43;94996.47;5071957;28;20041;-71
2023/03/07 03:23:53;;;;;;;31.67;9.02;;;;;;;1.60;70.10;95001.25;5072631;28;20047;-72
2023/03/07 03:26:20;;;;;;;35.80;9.93;;;;;;;1.57;70.09;95001.84;5071963;28;20048;-74
2023/03/07 03:28:46;;;;;;;36.47;9.40;;;;;;;1.66;69.69;94993.91;5072418;28;20051;-73
2023/03/07 03:31:14;;;;;;;40.15;9.95;;;;;;;1.66;69.65;94997.38;5071915;28;20048;-74
2023/03/07 03:33:41;;;;;;;33.70;9.40;;;;;;;1.68;69.46;95003.25;5072189;28;20052;-74
2023/03/07 03:36:11;;;;;;;30.48;9.07;;;;;;;1.64;69.25;95002.25;5070801;28;20056;-74
2023/03/07 03:38:38;;;;;;;39.85;10.05;;;;;;;1.61;69.20;94997.47;5072552;28;20048;-74
2023/03/07 03:41:05;;;;;;;34.50;9.38;;;;;;;1.66;68.93;94989.31;5070419;28;20508;-74
2023/03/07 03:43:32;;;;;;;29.83;9.68;;;;;;;1.65;68.68;94993.09;5071927;28;20055;-74
2023/03/07 03:45:58;;;;;;;35.50;10.07;;;;;;;1.70;68.69;94987.66;5071882;28;20377;-74
2023/03/07 03:48:25;;;;;;;33.83;9.45;;;;;;;1.72;68.55;94982.81;5071749;28;20040;-74
2023/03/07 03:51:00;;;;;;;24.27;9.15;;;;;;;1.70;68.45;94978.81;5072325;28;20059;-73
2023/03/07 03:53:28;;;;;;;37.10;9.30;;;;;;;1.66;68.42;94978.59;5071664;28;20044;-72
2023/03/07 03:56:01;;;;;;;23.55;7.90;;;;;;;1.69;68.30;94972.66;5072011;28;20052;-72
2023/03/07 03:58:27;;;;;;;35.47;9.38;;;;;;;1.78;67.72;94978.94;5071808;28;20048;-72
2023/03/07 04:00:53;;;;;;;39.38;9.50;;;;;;;1.75;67.58;94976.81;5071627;28;20128;-72
2023/03/07 04:03:20;;;;;;;33.47;9.43;;;;;;;1.79;67.78;94975.16;5071509;28;20055;-72
2023/03/07 04:05:46;;;;;;;39.50;9.52;;;;;;;1.74;67.30;94969.88;5071988;28;20055;-72
2023/03/07 04:08:13;;;;;;;36.75;9.75;;;;;;;1.72;67.48;94968.56;5071461;28;20048;-74
2023/03/07 04:10:41;;;;;;;38.00;9.10;;;;;;;1.73;67.75;94967.50;5073256;28;20046;-74
2023/03/07 04:13:07;;;;;;;41.35;9.60;;;;;;;1.74;67.36;94969.09;5072259;28;20131;-75
2023/03/07 04:15:34;;;;;;;35.25;8.73;;;;;;;1.69;66.94;94961.91;5071752;28;20040;-75
2023/03/07 04:18:01;;;;;;;38.15;9.07;;;;;;;1.67;67.52;94966.78;5071422;28;20518;-74
2023/03/07 04:20:27;;;;;;;37.88;9.25;;;;;;;1.71;67.08;94966.97;5070992;28;20041;-75
2023/03/07 04:22:53;;;;;;;23.25;8.50;;;;;;;1.62;67.56;94964.19;5071560;28;20047;-74
2023/03/07 04:25:20;;;;;;;54.05;10.88;;;;;;;1.52;67.96;94967.06;5071032;28;20053;-74
2023/03/07 04:27:48;;;;;;;38.83;9.35;;;;;;;1.50;67.97;94963.84;5071588;28;20101;-74
2023/03/07 04:30:14;;;;;;;34.17;8.65;;;;;;;1.55;67.64;94961.88;5071083;28;20032;-74
2023/03/07 04:32:41;;;;;;;28.15;8.52;;;;;;;1.56;67.74;94960.78;5070185;28;20154;-74
2023/03/07 04:35:08;;;;;;;38.75;9.80;;;;;;;1.52;67.63;94962.47;5071131;28;20048;-75
2023/03/07 04:37:34;;;;;;;37.55;8.77;;;;;;;1.54;67.76;94962.97;5071382;28;20048;-74
2023/03/07 04:40:01;;;;;;;35.38;8.63;;;;;;;1.57;67.67;94966.97;5071224;28;20066;-74
2023/03/07 04:42:27;;;;;;;27.85;8.57;;;;;;;1.61;67.60;94967.94;5070001;28;20036;-74
2023/03/07 04:44:55;;;;;;;33.05;8.88;;;;;;;1.61;67.55;94964.47;5070146;28;20060;-74
2023/03/07 04:47:22;;;;;;;43.65;9.18;;;;;;;1.56;67.63;94959.97;5069305;28;20045;-74
2023/03/07 04:49:48;;;;;;;44.60;9.18;;;;;;;1.58;68.01;94949.78;5070155;28;20040;-74
2023/03/07 04:52:14;;;;;;;38.20;8.82;;;;;;;1.60;68.14;94955.63;5070507;28;20480;-74
2023/03/07 04:54:41;;;;;;;30.75;8.85;;;;;;;1.56;67.99;94950.03;5070942;28;20082;-74
2023/03/07 04:57:08;;;;;;;42.13;9.27;;;;;;;1.61;67.69;94954.53;5070176;28;20044;-75
2023/03/07 04:59:37;;;;;;;51.05;9.77;;;;;;;1.58;67.70;94949.78;5071282;28;20083;-74
2023/03/07 05:02:06;;;;;;;34.90;9.10;;;;;;;1.54;68.01;94954.13;5069479;28;20496;-74
2023/03/07 05:04:32;;;;;;;37.97;9.02;;;;;;;1.50;68.59;94959.28;5070430;28;20123;-74
2023/03/07 05:06:59;;;;;;;33.30;8.45;;;;;;;1.44;68.42;94956.97;5070421;28;20579;-74
2023/03/07 05:09:25;;;;;;;42.53;9.73;;;;;;;1.32;69.26;94956.66;5070029;28;20044;-75
2023/03/07 05:11:52;;;;;;;37.28;9.48;;;;;;;1.26;69.36;94955.94;5070400;28;20507;-74
2023/03/07 05:14:18;;;;;;;45.38;9.15;;;;;;;1.21;68.90;94956.03;5069869;28;20439;-74
2023/03/07 05:16:45;;;;;;;43.65;9.75;;;;;;;1.19;69.23;94958.97;5069464;28;20047;-74
2023/03/07 05:19:13;;;;;;;42.28;9.50;;;;;;;1.20;69.20;94955.25;5069653;28;20033;-74
2023/03/07 05:21:40;;;;;;;39.50;9.10;;;;;;;1.21;69.11;94959.50;5070379;28;20086;-72
2023/03/07 05:24:07;;;;;;;29.20;8.57;;;;;;;1.16;68.52;94953.44;5069886;28;20097;-74
2023/03/07 05:26:33;;;;;;;38.88;10.00;;;;;;;1.17;68.41;94953.13;5070142;28;20454;-74
2023/03/07 05:29:00;;;;;;;36.47;8.98;;;;;;;1.15;68.44;94952.63;5070412;28;20055;-74
2023/03/07 05:31:27;;;;;;;32.65;8.45;;;;;;;1.14;68.13;94961.75;5069586;28;20741;-74
2023/03/07 05:33:54;;;;;;;40.70;9.18;;;;;;;1.06;68.72;94950.91;5069734;28;20140;-75
2023/03/07 05:36:22;;;;;;;29.50;8.48;;;;;;;0.99;69.17;94953.94;5069638;28;20045;-74
2023/03/07 05:38:48;;;;;;;31.17;8.70;;;;;;;0.94;69.05;94956.69;5070229;28;20555;-74
2023/03/07 05:41:14;;;;;;;38.30;9.68;;;;;;;0.92;69.07;94953.50;5069526;28;20044;-74
2023/03/07 05:43:41;;;;;;;34.78;9.23;;;;;;;0.85;69.25;94953.88;5070081;28;20036;-74
2023/03/07 05:46:07;;;;;;;36.55;9.10;;;;;;;0.84;68.85;94954.97;5069633;28;20049;-74
2023/03/07 05:48:34;;;;;;;45.30;10.00;;;;;;;0.81;69.43;94957.44;5070286;28;20055;-74
2023/03/07 05:51:01;;;;;;;44.20;9.88;;;;;;;0.82;68.76;94959.03;5069960;28;20043;-74
2023/03/07 05:53:29;;;;;;;31.77;8.88;;;;;;;0.82;69.09;94970.53;5070131;28;20514;-74
2023/03/07 05:55:55;;;;;;;42.53;9.18;;;;;;;0.77;69.46;94966.03;5069918;28;20529;-74
2023/03/07 05:58:21;;;;;;;32.45;8.45;;;;;;;0.73;69.38;94966.91;5069140;28;20135;-74
2023/03/07 06:00:48;;;;;;;44.92;10.02;;;;;;;0.74;69.55;94968.53;5069586;28;20412;-75
2023/03/07 06:03:15;;;;;;;33.22;9.05;;;;;;;0.73;69.43;94962.38;5069267;28;20048;-74
2023/03/07 06:05:41;;;;;;;44.78;9.82;;;;;;;0.73;69.41;94962.38;5069743;28;20043;-73
2023/03/07 06:08:08;;;;;;;37.85;9.38;;;;;;;0.71;69.35;94953.81;5069657;28;20043;-74
2023/03/07 06:10:38;;;;;;;24.48;7.97;;;;;;;0.72;69.43;94954.59;5069775;28;20048;-74
2023/03/07 06:13:05;;;;;;;42.67;10.23;;;;;;;0.67;69.77;94958.16;5069373;28;20057;-74
2023/03/07 06:15:31;;;;;;;26.33;9.10;;;;;;;0.68;69.58;94954.41;5070251;28;20048;-78
2023/03/07 06:17:58;;;;;;;31.45;8.43;;;;;;;0.71;69.58;94959.16;5070824;28;20033;-78
2023/03/07 06:20:24;;;;;;;39.95;8.95;;;;;;;0.74;69.00;94952.44;5069755;28;20132;-76
2023/03/07 06:22:51;;;;;;;28.30;8.85;;;;;;;0.75;69.23;94959.41;5069652;28;20044;-76
2023/03/07 06:25:20;;;;;;;50.63;9.45;;;;;;;0.76;69.27;94950.25;5069115;28;20575;-75
2023/03/07 06:27:48;;;;;;;38.10;9.20;;;;;;;0.78;69.07;94953.44;5070014;28;20044;-75
2023/03/07 06:30:15;;;;;;;36.85;8.85;;;;;;;0.80;68.89;94962.00;5069151;28;20056;-75
2023/03/07 06:32:41;;;;;;;59.08;9.23;;;;;;;0.81;68.81;94957.44;5066254;28;20043;-76
2023/03/07 06:35:09;;;;;;;51.40;9.68;;;;;;;0.80;69.22;94955.84;5066085;28;20488;-75
2023/03/07 06:37:36;;;;;;;47.13;10.02;;;;;;;0.81;69.13;94957.44;5066216;28;20507;-75
2023/03/07 06:40:05;;;;;;;47.15;9.43;;;;;;;0.83;68.82;94964.09;5065179;28;20045;-75
2023/03/07 06:42:31;;;;;;;35.65;8.32;;;;;;;0.87;68.44;94957.06;5066882;28;20052;-75
2023/03/07 06:44:59;;;;;;;35.50;8.75;;;;;;;0.92;68.33;94975.75;5069776;28;20036;-75
2023/03/07 06:47:25;;;;;;;33.35;8.90;;;;;;;0.99;68.44;94964.66;5068988;28;20063;-75
2023/03/07 06:49:52;;;;;;;40.50;9.63;;;;;;;1.04;68.15;94967.25;5069403;28;20048;-75
2023/03/07 06:52:19;;;;;;;26.88;8.13;;;;;;;1.10;68.01;94960.75;5069236;28;20044;-74
2023/03/07 06:54:45;;;;;;;40.05;8.93;;;;;;;1.14;67.79;94967.09;5069272;28;20067;-75
2023/03/07 06:57:11;;;;;;;39.83;8.90;;;;;;;1.20;67.06;94959.78;5068477;28;20431;-75
2023/03/07 06:59:38;;;;;;;39.42;9.23;;;;;;;1.32;66.99;94957.44;5069570;28;20415;-75
2023/03/07 07:02:06;;;;;;;32.78;9.32;;;;;;;1.41;67.08;94954.88;5061226;28;20491;-75
2023/03/07 07:04:33;;;;;;;40.03;9.15;;;;;;;1.42;66.40;94953.81;5069989;28;20040;-75
2023/03/07 07:06:59;;;;;;;38.25;9.05;;;;;;;1.48;65.12;94960.69;5069237;28;20048;-75
2023/03/07 07:09:26;;;;;;;34.55;8.85;;;;;;;1.60;66.28;94962.88;5069011;28;20044;-74
2023/03/07 07:11:52;;;;;;;33.50;8.82;;;;;;;1.67;65.03;94964.09;5072033;28;20529;-75
2023/03/07 07:14:19;;;;;;;39.72;8.05;;;;;;;1.72;65.08;94966.69;5072389;28;20040;-75
2023/03/07 07:16:45;;;;;;;31.00;8.30;;;;;;;1.70;64.58;94963.50;5072893;28;20036;-75
2023/03/07 07:19:13;;;;;;;35.25;8.40;;;;;;;1.76;64.99;94970.38;5072179;28;20408;-75
2023/03/07 07:21:39;;;;;;;31.80;8.68;;;;;;;1.80;64.83;94971.38;5072982;28;20048;-74
2023/03/07 07:24:06;;;;;;;37.50;7.13;;;;;;;1.87;64.36;94972.88;5072549;28;20052;-75
2023/03/07 07:26:32;;;;;;;36.38;8.43;;;;;;;1.92;63.80;94970.09;5072617;28;20047;-75
2023/03/07 07:28:59;;;;;;;36.08;7.88;;;;;;;2.04;63.73;94967.72;5073119;28;20044;-73
2023/03/07 07:31:25;;;;;;;38.33;8.98;;;;;;;2.03;63.36;94977.66;5072060;28;20040;-75
2023/03/07 07:33:52;;;;;;;36.75;8.63;;;;;;;2.16;63.28;94973.41;5072308;28;20072;-75
2023/03/07 07:36:20;;;;;;;34.70;8.25;;;;;;;2.17;63.23;94972.28;5072248;28;20040;-75
2023/03/07 07:38:46;;;;;;;34.20;7.95;;;;;;;2.17;62.85;94966.94;5072785;28;20607;-75
2023/03/07 07:41:12;;;;;;;41.20;8.60;;;;;;;2.20;62.59;94957.50;5071959;28;20040;-75
2023/03/07 07:43:40;;;;;;;30.50;8.23;;;;;;;2.29;62.47;94959.16;5073591;28;20052;-75
2023/03/07 07:46:07;;;;;;;33.22;7.80;;;;;;;2.31;62.00;94951.63;5072997;28;20041;-76
2023/03/07 07:48:33;;;;;;;25.75;7.85;;;;;;;2.60;61.29;94953.16;5074001;28;20050;-76
2023/03/07 07:51:01;;;;;;;34.85;9.07;;;;;;;2.62;60.11;94961.72;5074113;28;20047;-76
2023/03/07 07:53:29;;;;;;;27.35;8.25;;;;;;;2.74;59.34;94951.25;5074558;28;20504;-75
2023/03/07 07:55:56;;;;;;;39.45;8.82;;;;;;;3.08;59.96;94955.31;5074194;28;20044;-75
2023/03/07 07:58:22;;;;;;;28.50;7.72;;;;;;;3.38;59.03;94953.81;5072478;28;20040;-75
2023/03/07 08:00:49;;;;;;;44.63;10.38;;;;;;;3.55;58.62;94951.25;5072662;28;20048;-75
2023/03/07 08:03:15;;;;;;;31.88;7.80;;;;;;;3.82;57.25;94950.28;5071723;28;20052;-75
2023/03/07 08:05:46;;;;;;;38.80;8.15;;;;;;;3.98;56.91;94952.56;5072619;28;20040;-75
2023/03/07 08:08:13;;;;;;;30.42;7.47;;;;;;;4.01;55.57;94949.25;5072562;28;20041;-75
2023/03/07 08:10:43;;;;;;;35.88;8.70;;;;;;;3.47;55.93;94948.50;5071978;28;20048;-75
2023/03/07 08:13:12;;;;;;;30.65;8.13;;;;;;;3.26;56.32;94957.06;5071404;28;20495;-75
2023/03/07 08:15:39;;;;;;;28.10;7.85;;;;;;;3.22;56.68;94947.22;5071792;28;20045;-75
2023/03/07 08:18:05;;;;;;;37.13;7.95;;;;;;;3.41;57.39;94947.81;5071149;28;20048;-75
2023/03/07 08:20:32;;;;;;;31.38;8.02;;;;;;;3.95;56.27;94953.19;5071608;28;20040;-75
2023/03/07 08:22:58;;;;;;;32.85;8.15;;;;;;;4.63;55.02;94941.06;5070967;28;20127;-75
2023/03/07 08:25:25;;;;;;;45.00;9.77;;;;;;;4.89;53.18;94939.19;5070922;28;20055;-75
2023/03/07 08:27:54;;;;;;;38.88;7.65;;;;;;;5.59;49.94;94939.97;5071394;28;20048;-75
2023/03/07 08:30:22;;;;;;;36.28;7.30;;;;;;;6.07;49.10;94933.50;5070892;28;20415;-73
2023/03/07 08:32:49;;;;;;;36.50;8.30;;;;;;;5.05;50.43;94936.00;5070843;28;20127;-74
2023/03/07 08:35:15;;;;;;;50.30;9.75;;;;;;;5.01;51.08;94935.06;5070651;28;20082;-75
2023/03/07 08:37:42;;;;;;;34.20;7.72;;;;;;;5.65;49.37;94927.88;5070930;28;20040;-75
2023/03/07 08:40:10;;;;;;;31.73;7.90;;;;;;;5.03;50.73;94927.47;5070610;28;20047;-75
2023/03/07 08:42:36;;;;;;;36.05;7.65;;;;;;;5.23;50.10;94921.44;5070902;28;20516;-75
2023/03/07 08:45:05;;;;;;;30.20;6.82;;;;;;;5.64;49.77;94930.91;5070331;28;20492;-75
2023/03/07 08:47:31;;;;;;;32.63;6.82;;;;;;;5.42;50.23;94924.56;5070734;28;20079;-74
2023/03/07 08:49:58;;;;;;;34.40;7.38;;;;;;;5.67;48.69;94916.75;5070932;28;20488;-74
2023/03/07 08:52:24;;;;;;;32.83;6.75;;;;;;;6.08;48.14;94923.47;5070297;28;20067;-74
2023/03/07 08:54:50;;;;;;;29.15;7.35;;;;;;;5.59;48.88;94925.66;5070959;28;20043;-74
2023/03/07 08:57:17;;;;;;;34.50;7.00;;;;;;;4.94;49.57;94925.53;5070116;28;20044;-75
2023/03/07 08:59:43;;;;;;;36.22;6.80;;;;;;;5.26;49.75;94914.59;5070655;28;20045;-75
2023/03/07 09:02:11;;;;;;;26.75;6.90;;;;;;;5.69;49.54;94917.19;5069831;28;20055;-75
2023/03/07 09:04:38;;;;;;;32.30;7.40;;;;;;;5.75;48.03;94915.94;5070694;28;20049;-75
2023/03/07 09:07:04;;;;;;;23.52;6.60;;;;;;;5.58;49.36;94921.38;5069925;28;20049;-75
2023/03/07 09:09:31;;;;;;;34.05;7.50;;;;;;;5.61;49.06;94920.72;5070441;28;20052;-75
2023/03/07 09:11:58;;;;;;;34.42;7.00;;;;;;;5.96;48.05;94918.75;5070901;28;20036;-75
2023/03/07 09:14:24;;;;;;;34.40;7.63;;;;;;;5.67;48.33;94917.53;5070598;28;20049;-75
2023/03/07 09:16:51;;;;;;;33.13;7.25;;;;;;;5.65;49.50;94908.97;5070570;28;20048;-75
2023/03/07 09:19:19;;;;;;;34.00;7.38;;;;;;;5.80;48.54;94907.66;5070079;28;20047;-75
2023/03/07 09:21:45;;;;;;;28.35;6.80;;;;;;;6.02;47.58;94909.34;5070547;28;20049;-75
2023/03/07 09:24:11;;;;;;;28.50;7.60;;;;;;;6.02;47.97;94901.25;5070882;28;20040;-74
2023/03/07 09:26:38;;;;;;;26.52;7.10;;;;;;;6.16;47.82;94903.72;5071093;28;20511;-74
2023/03/07 09:29:04;;;;;;;27.95;7.93;;;;;;;6.20;45.72;94910.06;5070859;28;20040;-73
2023/03/07 09:31:31;;;;;;;27.50;7.55;;;;;;;5.48;48.07;94904.41;5071337;28;20507;-73
2023/03/07 09:33:58;;;;;;;20.85;6.47;;;;;;;5.96;47.63;94899.84;5071175;28;20631;-73
2023/03/07 09:36:26;;;;;;;23.02;6.93;;;;;;;6.09;47.31;94892.63;5072054;28;20045;-73
2023/03/07 09:38:52;;;;;;;24.38;7.70;;;;;;;6.19;47.23;94886.88;5072310;28;20535;-73
2023/03/07 09:41:35;;;;;;;21.98;6.70;;;;;;;6.84;46.79;94890.94;5069932;28;20518;-74
2023/03/07 09:44:11;;;;;;;16.67;6.50;;;;;;;7.66;45.45;94893.06;5070011;28;20055;-73
2023/03/07 09:46:48;;;;;;;30.85;6.63;;;;;;;7.24;44.80;94893.16;5070982;28;20051;-74
2023/03/07 09:49:18;;;;;;;30.33;7.00;;;;;;;6.86;45.27;94883.28;5070189;28;20055;-73
2023/03/07 09:51:50;;;;;;;27.13;6.20;;;;;;;6.88;45.04;94883.72;5070274;28;20669;-73
2023/03/07 09:54:20;;;;;;;29.50;7.57;;;;;;;7.03;45.06;94888.53;5069592;28;20045;-74
2023/03/07 09:56:49;;;;;;;24.40;6.85;;;;;;;7.31;44.87;94877.19;5070944;28;20037;-73
2023/03/07 09:59:21;;;;;;;9.98;5.93;;;;;;;6.48;43.86;94867.16;5072425;28;20128;-73
2023/03/07 10:01:51;;;;;;;13.85;5.63;;;;;;;7.12;43.87;94860.63;5072899;28;20044;-73
2023/03/07 10:04:22;;;;;;;12.25;5.38;;;;;;;6.76;45.30;94862.81;5072807;28;20068;-73
2023/03/07 10:06:54;;;;;;;9.90;5.25;;;;;;;7.11;43.27;94861.75;5072771;28;20516;-74
2023/03/07 10:09:23;;;;;;;12.98;6.03;;;;;;;6.70;43.61;94847.13;5072454;28;20114;-74
2023/03/07 10:12:17;;;;;;;13.55;5.82;;;;;;;6.85;45.40;94849.22;5075426;28;20055;-73
2023/03/07 10:15:03;;;;;;;19.48;6.35;;;;;;;6.90;43.22;94842.81;5065167;28;20089;-73
2023/03/07 10:17:45;;;;;;;12.77;6.82;;;;;;;6.89;43.17;94844.75;5060202;28;20550;-73
2023/03/07 10:20:19;;;;;;;20.70;6.97;;;;;;;6.79;43.95;94829.69;5053256;28;20061;-73
2023/03/07 10:22:57;;;;;;;21.02;7.60;;;;;;;7.06;44.38;94822.94;5053457;28;20059;-73
2023/03/07 10:25:27;;;;;;;15.98;6.32;;;;;;;7.53;44.18;94828.03;5052762;28;20056;-74
2023/03/07 10:28:18;;;;;;;15.73;6.68;;;;;;;7.09;42.14;94832.28;5052526;28;20045;-74
2023/03/07 10:30:46;;;;;;;13.13;7.03;;;;;;;6.74;43.71;94824.50;5053124;28;20064;-73
2023/03/07 10:33:18;;;;;;;18.23;7.32;;;;;;;6.51;43.71;94821.31;5052854;28;20043;-74
2023/03/07 10:35:51;;;;;;;12.45;6.72;;;;;;;6.51;45.33;94809.69;5053780;28;20131;-73
2023/03/07 10:38:28;;;;;;;12.95;6.60;;;;;;;6.74;46.00;94802.06;5053645;28;20516;-76
2023/03/07 10:40:58;;;;;;;22.55;7.28;;;;;;;6.98;43.89;94804.84;5051933;28;20225;-73
2023/03/07 10:43:27;;;;;;;16.05;7.20;;;;;;;6.36;44.61;94794.06;5051598;28;20412;-73
2023/03/07 10:45:59;;;;;;;14.77;8.23;;;;;;;6.32;45.37;94799.34;5054147;28;20037;-75
2023/03/07 10:48:28;;;;;;;18.33;8.60;;;;;;;6.15;44.03;94807.53;5055173;28;20040;-75
2023/03/07 10:51:05;;;;;;;13.32;7.25;;;;;;;6.38;45.19;94781.81;5054629;28;20512;-74
2023/03/07 10:53:36;;;;;;;15.18;8.02;;;;;;;6.38;44.59;94781.81;5054842;28;20048;-75
2023/03/07 10:56:11;;;;;;;24.80;8.55;;;;;;;6.54;44.93;94782.78;5054073;28;20519;-73
2023/03/07 10:58:38;;;;;;;13.68;7.53;;;;;;;6.33;46.47;94773.91;5054683;28;20052;-76
2023/03/07 11:01:17;;;;;;;14.35;7.93;;;;;;;6.70;46.13;94771.38;5053201;28;20501;-75
2023/03/07 11:03:46;;;;;;;22.27;8.13;;;;;;;6.68;44.24;94765.50;5053853;28;20044;-76
2023/03/07 11:06:34;;;;;;;15.20;6.90;;;;;;;6.67;45.14;94750.38;5053055;28;20052;-75
2023/03/07 11:09:13;;;;;;;24.08;7.85;;;;;;;7.35;44.65;94753.50;5053594;28;20037;-76
2023/03/07 11:11:40;;;;;;;14.68;7.93;;;;;;;7.61;43.29;94755.91;5073720;28;20048;-76
2023/03/07 11:14:09;;;;;;;17.02;7.15;;;;;;;7.24;42.81;94753.16;5073458;28;20063;-76
2023/03/07 11:16:41;;;;;;;17.98;7.60;;;;;;;6.88;43.29;94743.03;5073483;28;20518;-76
2023/03/07 11:19:34;;;;;;;11.88;7.32;;;;;;;6.70;42.94;94749.72;5072871;28;20086;-76
2023/03/07 11:22:03;;;;;;;15.77;7.70;;;;;;;6.48;42.92;94732.75;5073406;28;20150;-75
2023/03/07 11:24:36;;;;;;;16.15;7.60;;;;;;;6.69;43.12;94726.53;5076412;28;20051;-75
2023/03/07 11:27:02;;;;;;;22.80;5.60;;;;;;;7.09;42.64;94723.22;5076328;28;20036;-73
2023/03/07 11:29:32;;;;;;;14.35;7.65;;;;;;;7.23;42.64;94718.31;5076841;28;20045;-73
2023/03/07 11:32:04;;;;;;;15.48;6.70;;;;;;;7.45;42.67;94709.75;5074454;28;20047;-74
2023/03/07 11:34:36;;;;;;;12.30;7.05;;;;;;;7.64;41.57;94697.56;5056008;28;20052;-75
2023/03/07 11:37:16;;;;;;;14.75;7.65;;;;;;;7.62;42.07;94713.34;5054696;28;20043;-75